sensor_id;sensor_type;location;lat;lon;timestamp;P1;durP1;ratioP1;P2;durP2;ratioP2
54897;SDS011;40800;52.704;6.398;2023-04-24T00:02:07;37.55;;;35.95;;
54897;SDS011;40800;52.704;6.398;2023-04-24T00:04:35;40.90;;;39.10;;
54897;SDS011;40800;52.704;6.398;2023-04-24T00:07:05;41.22;;;39.42;;
54897;SDS011;40800;52.704;6.398;2023-04-24T00:09:31;42.90;;;40.95;;
54897;SDS011;40800;52.704;6.398;2023-04-24T00:11:58;41.22;;;39.33;;
54897;SDS011;40800;52.704;6.398;2023-04-24T00:14:23;38.50;;;36.80;;
54897;SDS011;40800;52.704;6.398;2023-04-24T00:16:49;38.42;;;36.63;;
54897;SDS011;40800;52.704;6.398;2023-04-24T00:19:15;42.00;;;40.08;;
54897;SDS011;40800;52.704;6.398;2023-04-24T00:21:40;44.13;;;42.03;;
54897;SDS011;40800;52.704;6.398;2023-04-24T00:24:06;43.00;;;40.90;;
54897;SDS011;40800;52.704;6.398;2023-04-24T00:26:34;44.10;;;42.00;;
54897;SDS011;40800;52.704;6.398;2023-04-24T00:28:59;45.70;;;43.50;;
54897;SDS011;40800;52.704;6.398;2023-04-24T00:31:25;48.33;;;46.03;;
54897;SDS011;40800;52.704;6.398;2023-04-24T00:33:51;48.03;;;45.63;;
54897;SDS011;40800;52.704;6.398;2023-04-24T00:36:16;48.55;;;46.25;;
54897;SDS011;40800;52.704;6.398;2023-04-24T00:38:44;50.28;;;47.78;;
54897;SDS011;40800;52.704;6.398;2023-04-24T00:41:09;47.17;;;44.67;;
54897;SDS011;40800;52.704;6.398;2023-04-24T00:43:35;45.83;;;43.35;;
54897;SDS011;40800;52.704;6.398;2023-04-24T00:46:01;48.67;;;46.25;;
54897;SDS011;40800;52.704;6.398;2023-04-24T00:48:26;49.72;;;47.10;;
54897;SDS011;40800;52.704;6.398;2023-04-24T00:50:52;52.50;;;49.85;;
54897;SDS011;40800;52.704;6.398;2023-04-24T00:53:19;49.38;;;46.78;;
54897;SDS011;40800;52.704;6.398;2023-04-24T00:55:44;46.80;;;44.30;;
54897;SDS011;40800;52.704;6.398;2023-04-24T00:58:11;48.63;;;46.13;;
54897;SDS011;40800;52.704;6.398;2023-04-24T01:00:37;52.60;;;49.83;;
54897;SDS011;40800;52.704;6.398;2023-04-24T01:03:04;52.97;;;50.17;;
54897;SDS011;40800;52.704;6.398;2023-04-24T01:07:56;45.42;;;43.03;;
54897;SDS011;40800;52.704;6.398;2023-04-24T01:10:23;46.72;;;44.33;;
54897;SDS011;40800;52.704;6.398;2023-04-24T01:12:51;56.45;;;53.65;;
54897;SDS011;40800;52.704;6.398;2023-04-24T01:15:17;56.90;;;54.00;;
54897;SDS011;40800;52.704;6.398;2023-04-24T01:17:43;51.72;;;49.05;;
54897;SDS011;40800;52.704;6.398;2023-04-24T01:20:09;52.13;;;49.47;;
54897;SDS011;40800;52.704;6.398;2023-04-24T01:22:35;61.20;;;58.10;;
54897;SDS011;40800;52.704;6.398;2023-04-24T01:25:01;61.30;;;57.90;;
54897;SDS011;40800;52.704;6.398;2023-04-24T01:29:54;58.35;;;55.45;;
54897;SDS011;40800;52.704;6.398;2023-04-24T01:32:19;52.83;;;50.13;;
54897;SDS011;40800;52.704;6.398;2023-04-24T01:34:45;52.45;;;49.75;;
54897;SDS011;40800;52.704;6.398;2023-04-24T01:37:12;53.10;;;50.40;;
54897;SDS011;40800;52.704;6.398;2023-04-24T01:39:37;56.47;;;53.63;;
54897;SDS011;40800;52.704;6.398;2023-04-24T01:42:03;57.20;;;54.40;;
54897;SDS011;40800;52.704;6.398;2023-04-24T01:46:55;50.92;;;48.22;;
54897;SDS011;40800;52.704;6.398;2023-04-24T01:49:21;51.55;;;48.85;;
54897;SDS011;40800;52.704;6.398;2023-04-24T01:51:47;49.85;;;47.25;;
54897;SDS011;40800;52.704;6.398;2023-04-24T01:54:12;55.42;;;52.63;;
54897;SDS011;40800;52.704;6.398;2023-04-24T01:56:41;53.92;;;51.22;;
54897;SDS011;40800;52.704;6.398;2023-04-24T01:59:09;48.83;;;46.33;;
54897;SDS011;40800;52.704;6.398;2023-04-24T02:01:36;48.17;;;45.58;;
54897;SDS011;40800;52.704;6.398;2023-04-24T02:04:03;49.50;;;46.97;;
54897;SDS011;40800;52.704;6.398;2023-04-24T02:06:30;49.67;;;47.08;;
54897;SDS011;40800;52.704;6.398;2023-04-24T02:08:56;53.85;;;51.05;;
54897;SDS011;40800;52.704;6.398;2023-04-24T02:11:22;54.55;;;51.70;;
54897;SDS011;40800;52.704;6.398;2023-04-24T02:13:48;47.15;;;44.58;;
54897;SDS011;40800;52.704;6.398;2023-04-24T02:16:15;47.45;;;44.92;;
54897;SDS011;40800;52.704;6.398;2023-04-24T02:18:40;50.33;;;47.53;;
54897;SDS011;40800;52.704;6.398;2023-04-24T02:21:06;54.75;;;51.85;;
54897;SDS011;40800;52.704;6.398;2023-04-24T02:23:31;54.50;;;51.72;;
54897;SDS011;40800;52.704;6.398;2023-04-24T02:25:57;47.35;;;44.75;;
54897;SDS011;40800;52.704;6.398;2023-04-24T02:28:22;51.08;;;46.47;;
54897;SDS011;40800;52.704;6.398;2023-04-24T02:30:48;51.00;;;48.30;;
54897;SDS011;40800;52.704;6.398;2023-04-24T02:33:13;49.42;;;46.83;;
54897;SDS011;40800;52.704;6.398;2023-04-24T02:35:39;52.67;;;49.88;;
54897;SDS011;40800;52.704;6.398;2023-04-24T02:38:04;52.40;;;49.60;;
54897;SDS011;40800;52.704;6.398;2023-04-24T02:40:30;48.85;;;46.15;;
54897;SDS011;40800;52.704;6.398;2023-04-24T02:42:55;50.42;;;47.72;;
54897;SDS011;40800;52.704;6.398;2023-04-24T02:45:21;51.35;;;48.65;;
54897;SDS011;40800;52.704;6.398;2023-04-24T02:47:46;54.92;;;52.13;;
54897;SDS011;40800;52.704;6.398;2023-04-24T02:50:12;54.20;;;51.40;;
54897;SDS011;40800;52.704;6.398;2023-04-24T02:52:39;50.30;;;47.50;;
54897;SDS011;40800;52.704;6.398;2023-04-24T02:55:05;50.03;;;47.33;;
54897;SDS011;40800;52.704;6.398;2023-04-24T02:57:30;50.55;;;47.85;;
54897;SDS011;40800;52.704;6.398;2023-04-24T02:59:56;47.95;;;45.35;;
54897;SDS011;40800;52.704;6.398;2023-04-24T03:02:21;52.05;;;49.35;;
54897;SDS011;40800;52.704;6.398;2023-04-24T03:04:47;50.75;;;48.05;;
54897;SDS011;40800;52.704;6.398;2023-04-24T03:07:13;46.45;;;43.85;;
54897;SDS011;40800;52.704;6.398;2023-04-24T03:09:39;47.30;;;44.58;;
54897;SDS011;40800;52.704;6.398;2023-04-24T03:12:05;46.05;;;43.60;;
54897;SDS011;40800;52.704;6.398;2023-04-24T03:14:31;44.50;;;42.20;;
54897;SDS011;40800;52.704;6.398;2023-04-24T03:16:57;47.05;;;44.60;;
54897;SDS011;40800;52.704;6.398;2023-04-24T03:19:22;46.50;;;43.90;;
54897;SDS011;40800;52.704;6.398;2023-04-24T03:21:48;43.78;;;41.47;;
54897;SDS011;40800;52.704;6.398;2023-04-24T03:24:14;43.33;;;41.03;;
54897;SDS011;40800;52.704;6.398;2023-04-24T03:26:40;43.80;;;41.50;;
54897;SDS011;40800;52.704;6.398;2023-04-24T03:29:05;47.50;;;45.00;;
54897;SDS011;40800;52.704;6.398;2023-04-24T03:31:31;46.60;;;44.20;;
54897;SDS011;40800;52.704;6.398;2023-04-24T03:33:56;43.47;;;41.15;;
54897;SDS011;40800;52.704;6.398;2023-04-24T03:36:22;42.85;;;40.60;;
54897;SDS011;40800;52.704;6.398;2023-04-24T03:38:47;41.85;;;39.65;;
54897;SDS011;40800;52.704;6.398;2023-04-24T03:41:13;41.47;;;39.30;;
54897;SDS011;40800;52.704;6.398;2023-04-24T03:43:38;46.85;;;44.50;;
54897;SDS011;40800;52.704;6.398;2023-04-24T03:46:04;47.97;;;45.58;;
54897;SDS011;40800;52.704;6.398;2023-04-24T03:48:29;41.47;;;39.38;;
54897;SDS011;40800;52.704;6.398;2023-04-24T03:50:55;41.38;;;39.28;;
54897;SDS011;40800;52.704;6.398;2023-04-24T03:53:20;41.28;;;39.17;;
54897;SDS011;40800;52.704;6.398;2023-04-24T03:55:46;44.28;;;41.97;;
54897;SDS011;40800;52.704;6.398;2023-04-24T03:58:12;52.15;;;49.47;;
54897;SDS011;40800;52.704;6.398;2023-04-24T04:03:05;45.05;;;42.45;;
54897;SDS011;40800;52.704;6.398;2023-04-24T04:05:31;45.13;;;42.55;;
54897;SDS011;40800;52.704;6.398;2023-04-24T04:07:56;45.20;;;42.70;;
54897;SDS011;40800;52.704;6.398;2023-04-24T04:10:22;47.47;;;44.88;;
54897;SDS011;40800;52.704;6.398;2023-04-24T04:12:48;50.58;;;47.88;;
54897;SDS011;40800;52.704;6.398;2023-04-24T04:15:13;44.63;;;42.13;;
54897;SDS011;40800;52.704;6.398;2023-04-24T04:17:39;44.47;;;41.95;;
54897;SDS011;40800;52.704;6.398;2023-04-24T04:20:04;45.05;;;42.45;;
54897;SDS011;40800;52.704;6.398;2023-04-24T04:22:40;43.40;;;40.80;;
54897;SDS011;40800;52.704;6.398;2023-04-24T04:25:05;46.78;;;44.28;;
54897;SDS011;40800;52.704;6.398;2023-04-24T04:27:31;45.88;;;43.47;;
54897;SDS011;40800;52.704;6.398;2023-04-24T04:29:58;42.95;;;40.65;;
54897;SDS011;40800;52.704;6.398;2023-04-24T04:32:26;41.67;;;39.47;;
54897;SDS011;40800;52.704;6.398;2023-04-24T04:34:51;41.58;;;39.30;;
54897;SDS011;40800;52.704;6.398;2023-04-24T04:37:18;40.60;;;38.45;;
54897;SDS011;40800;52.704;6.398;2023-04-24T04:39:43;42.25;;;40.05;;
54897;SDS011;40800;52.704;6.398;2023-04-24T04:42:09;43.00;;;40.80;;
54897;SDS011;40800;52.704;6.398;2023-04-24T04:44:35;42.20;;;39.83;;
54897;SDS011;40800;52.704;6.398;2023-04-24T04:47:01;41.65;;;39.45;;
54897;SDS011;40800;52.704;6.398;2023-04-24T04:49:30;43.05;;;40.65;;
54897;SDS011;40800;52.704;6.398;2023-04-24T04:51:56;42.90;;;40.70;;
54897;SDS011;40800;52.704;6.398;2023-04-24T04:54:22;43.22;;;41.03;;
54897;SDS011;40800;52.704;6.398;2023-04-24T04:56:49;41.28;;;39.08;;
54897;SDS011;40800;52.704;6.398;2023-04-24T04:59:15;41.92;;;39.67;;
54897;SDS011;40800;52.704;6.398;2023-04-24T05:01:41;39.58;;;37.58;;
54897;SDS011;40800;52.704;6.398;2023-04-24T05:04:06;42.90;;;40.70;;
54897;SDS011;40800;52.704;6.398;2023-04-24T05:06:32;41.72;;;39.58;;
54897;SDS011;40800;52.704;6.398;2023-04-24T05:08:58;43.15;;;40.95;;
54897;SDS011;40800;52.704;6.398;2023-04-24T05:11:23;40.17;;;38.08;;
54897;SDS011;40800;52.704;6.398;2023-04-24T05:13:49;39.78;;;37.78;;
54897;SDS011;40800;52.704;6.398;2023-04-24T05:16:14;39.45;;;37.45;;
54897;SDS011;40800;52.704;6.398;2023-04-24T05:18:40;39.38;;;37.38;;
54897;SDS011;40800;52.704;6.398;2023-04-24T05:21:06;41.67;;;39.67;;
54897;SDS011;40800;52.704;6.398;2023-04-24T05:23:31;41.70;;;39.60;;
54897;SDS011;40800;52.704;6.398;2023-04-24T05:25:57;40.38;;;38.38;;
54897;SDS011;40800;52.704;6.398;2023-04-24T05:28:22;39.90;;;37.80;;
54897;SDS011;40800;52.704;6.398;2023-04-24T05:30:48;40.83;;;38.53;;
54897;SDS011;40800;52.704;6.398;2023-04-24T05:33:13;43.58;;;41.15;;
54897;SDS011;40800;52.704;6.398;2023-04-24T05:35:40;44.28;;;41.67;;
54897;SDS011;40800;52.704;6.398;2023-04-24T05:38:10;44.65;;;42.05;;
54897;SDS011;40800;52.704;6.398;2023-04-24T05:40:36;38.53;;;36.28;;
54897;SDS011;40800;52.704;6.398;2023-04-24T05:43:02;40.88;;;38.47;;
54897;SDS011;40800;52.704;6.398;2023-04-24T05:45:27;39.92;;;37.70;;
54897;SDS011;40800;52.704;6.398;2023-04-24T05:47:53;40.45;;;38.15;;
54897;SDS011;40800;52.704;6.398;2023-04-24T05:50:18;41.55;;;39.15;;
54897;SDS011;40800;52.704;6.398;2023-04-24T05:52:44;43.65;;;40.83;;
54897;SDS011;40800;52.704;6.398;2023-04-24T05:55:09;44.50;;;41.50;;
54897;SDS011;40800;52.704;6.398;2023-04-24T05:57:35;45.55;;;42.60;;
54897;SDS011;40800;52.704;6.398;2023-04-24T06:00:03;45.88;;;42.75;;
54897;SDS011;40800;52.704;6.398;2023-04-24T06:02:29;46.53;;;43.40;;
54897;SDS011;40800;52.704;6.398;2023-04-24T06:04:57;46.50;;;43.25;;
54897;SDS011;40800;52.704;6.398;2023-04-24T06:07:24;46.88;;;43.78;;
54897;SDS011;40800;52.704;6.398;2023-04-24T06:09:51;45.53;;;42.40;;
54897;SDS011;40800;52.704;6.398;2023-04-24T06:12:17;45.63;;;42.53;;
54897;SDS011;40800;52.704;6.398;2023-04-24T06:14:42;45.42;;;42.42;;
54897;SDS011;40800;52.704;6.398;2023-04-24T06:17:08;44.78;;;41.88;;
54897;SDS011;40800;52.704;6.398;2023-04-24T06:19:34;45.80;;;42.70;;
54897;SDS011;40800;52.704;6.398;2023-04-24T06:21:59;45.22;;;42.33;;
54897;SDS011;40800;52.704;6.398;2023-04-24T06:24:28;42.33;;;39.75;;
54897;SDS011;40800;52.704;6.398;2023-04-24T06:26:53;43.53;;;40.72;;
54897;SDS011;40800;52.704;6.398;2023-04-24T06:29:19;43.13;;;40.42;;
54897;SDS011;40800;52.704;6.398;2023-04-24T06:31:44;43.25;;;40.35;;
54897;SDS011;40800;52.704;6.398;2023-04-24T06:34:10;42.85;;;40.13;;
54897;SDS011;40800;52.704;6.398;2023-04-24T06:36:36;43.67;;;40.88;;
54897;SDS011;40800;52.704;6.398;2023-04-24T06:39:02;42.55;;;39.97;;
54897;SDS011;40800;52.704;6.398;2023-04-24T06:41:28;42.55;;;40.05;;
54897;SDS011;40800;52.704;6.398;2023-04-24T06:43:54;41.33;;;38.83;;
54897;SDS011;40800;52.704;6.398;2023-04-24T06:46:19;41.40;;;38.80;;
54897;SDS011;40800;52.704;6.398;2023-04-24T06:48:48;43.00;;;40.42;;
54897;SDS011;40800;52.704;6.398;2023-04-24T06:51:14;42.78;;;40.15;;
54897;SDS011;40800;52.704;6.398;2023-04-24T06:53:40;41.95;;;39.30;;
54897;SDS011;40800;52.704;6.398;2023-04-24T06:56:06;41.38;;;39.08;;
54897;SDS011;40800;52.704;6.398;2023-04-24T06:58:31;42.47;;;40.00;;
54897;SDS011;40800;52.704;6.398;2023-04-24T07:00:57;43.42;;;40.72;;
54897;SDS011;40800;52.704;6.398;2023-04-24T07:03:22;43.83;;;41.22;;
54897;SDS011;40800;52.704;6.398;2023-04-24T07:05:48;44.80;;;42.20;;
54897;SDS011;40800;52.704;6.398;2023-04-24T07:08:14;43.90;;;41.30;;
54897;SDS011;40800;52.704;6.398;2023-04-24T07:10:42;44.15;;;41.55;;
54897;SDS011;40800;52.704;6.398;2023-04-24T07:13:08;45.67;;;42.78;;
54897;SDS011;40800;52.704;6.398;2023-04-24T07:15:34;46.95;;;43.95;;
54897;SDS011;40800;52.704;6.398;2023-04-24T07:18:00;46.53;;;43.53;;
54897;SDS011;40800;52.704;6.398;2023-04-24T07:20:25;46.13;;;43.15;;
54897;SDS011;40800;52.704;6.398;2023-04-24T07:22:51;46.13;;;42.92;;
54897;SDS011;40800;52.704;6.398;2023-04-24T07:25:18;46.63;;;43.83;;
54897;SDS011;40800;52.704;6.398;2023-04-24T07:27:44;47.13;;;44.00;;
54897;SDS011;40800;52.704;6.398;2023-04-24T07:30:10;47.80;;;44.83;;
54897;SDS011;40800;52.704;6.398;2023-04-24T07:32:36;47.80;;;44.90;;
54897;SDS011;40800;52.704;6.398;2023-04-24T07:35:02;46.85;;;43.95;;
54897;SDS011;40800;52.704;6.398;2023-04-24T07:37:28;47.08;;;44.10;;
54897;SDS011;40800;52.704;6.398;2023-04-24T07:39:54;45.33;;;42.58;;
54897;SDS011;40800;52.704;6.398;2023-04-24T07:42:20;47.58;;;44.50;;
54897;SDS011;40800;52.704;6.398;2023-04-24T07:44:45;47.83;;;44.80;;
54897;SDS011;40800;52.704;6.398;2023-04-24T07:47:12;47.50;;;44.60;;
54897;SDS011;40800;52.704;6.398;2023-04-24T07:49:40;45.88;;;42.97;;
54897;SDS011;40800;52.704;6.398;2023-04-24T07:52:07;46.55;;;43.60;;
54897;SDS011;40800;52.704;6.398;2023-04-24T07:54:33;46.90;;;44.05;;
54897;SDS011;40800;52.704;6.398;2023-04-24T07:56:58;47.13;;;44.20;;
54897;SDS011;40800;52.704;6.398;2023-04-24T07:59:25;46.00;;;43.40;;
54897;SDS011;40800;52.704;6.398;2023-04-24T08:01:50;45.85;;;43.20;;
54897;SDS011;40800;52.704;6.398;2023-04-24T08:04:16;44.88;;;42.22;;
54897;SDS011;40800;52.704;6.398;2023-04-24T08:06:42;45.58;;;42.78;;
54897;SDS011;40800;52.704;6.398;2023-04-24T08:09:08;46.25;;;43.55;;
54897;SDS011;40800;52.704;6.398;2023-04-24T08:11:34;48.28;;;45.35;;
54897;SDS011;40800;52.704;6.398;2023-04-24T08:14:00;49.78;;;46.58;;
54897;SDS011;40800;52.704;6.398;2023-04-24T08:16:25;52.15;;;48.65;;
54897;SDS011;40800;52.704;6.398;2023-04-24T08:18:51;53.00;;;49.20;;
54897;SDS011;40800;52.704;6.398;2023-04-24T08:21:17;56.90;;;52.23;;
54897;SDS011;40800;52.704;6.398;2023-04-24T08:23:44;55.83;;;51.28;;
54897;SDS011;40800;52.704;6.398;2023-04-24T08:26:10;57.60;;;53.10;;
54897;SDS011;40800;52.704;6.398;2023-04-24T08:28:36;56.28;;;51.88;;
54897;SDS011;40800;52.704;6.398;2023-04-24T08:31:02;59.55;;;54.83;;
54897;SDS011;40800;52.704;6.398;2023-04-24T08:33:27;59.20;;;54.38;;
54897;SDS011;40800;52.704;6.398;2023-04-24T08:35:59;60.30;;;55.47;;
54897;SDS011;40800;52.704;6.398;2023-04-24T08:38:29;60.47;;;55.58;;
54897;SDS011;40800;52.704;6.398;2023-04-24T08:40:54;61.50;;;56.45;;
54897;SDS011;40800;52.704;6.398;2023-04-24T08:43:23;63.15;;;57.97;;
54897;SDS011;40800;52.704;6.398;2023-04-24T08:45:49;62.58;;;57.47;;
54897;SDS011;40800;52.704;6.398;2023-04-24T08:48:15;64.80;;;59.08;;
54897;SDS011;40800;52.704;6.398;2023-04-24T08:50:42;62.75;;;57.67;;
54897;SDS011;40800;52.704;6.398;2023-04-24T08:55:35;66.03;;;60.60;;
54897;SDS011;40800;52.704;6.398;2023-04-24T08:58:02;66.97;;;61.55;;
54897;SDS011;40800;52.704;6.398;2023-04-24T09:00:28;61.50;;;56.60;;
54897;SDS011;40800;52.704;6.398;2023-04-24T09:02:54;63.10;;;58.15;;
54897;SDS011;40800;52.704;6.398;2023-04-24T09:05:21;63.55;;;58.65;;
54897;SDS011;40800;52.704;6.398;2023-04-24T09:07:53;60.50;;;55.83;;
54897;SDS011;40800;52.704;6.398;2023-04-24T09:10:20;63.13;;;57.97;;
54897;SDS011;40800;52.704;6.398;2023-04-24T09:12:47;61.88;;;56.90;;
54897;SDS011;40800;52.704;6.398;2023-04-24T09:15:14;61.75;;;57.03;;
54897;SDS011;40800;52.704;6.398;2023-04-24T09:17:40;59.97;;;55.47;;
54897;SDS011;40800;52.704;6.398;2023-04-24T09:20:06;60.67;;;56.05;;
54897;SDS011;40800;52.704;6.398;2023-04-24T09:22:32;58.70;;;54.40;;
54897;SDS011;40800;52.704;6.398;2023-04-24T09:25:04;58.92;;;54.60;;
54897;SDS011;40800;52.704;6.398;2023-04-24T09:27:32;59.40;;;54.90;;
54897;SDS011;40800;52.704;6.398;2023-04-24T09:29:59;58.63;;;54.28;;
54897;SDS011;40800;52.704;6.398;2023-04-24T09:32:25;57.90;;;53.67;;
54897;SDS011;40800;52.704;6.398;2023-04-24T09:35:09;59.85;;;55.30;;
54897;SDS011;40800;52.704;6.398;2023-04-24T09:37:40;59.55;;;55.25;;
54897;SDS011;40800;52.704;6.398;2023-04-24T09:40:15;59.10;;;54.55;;
54897;SDS011;40800;52.704;6.398;2023-04-24T09:42:45;57.65;;;53.35;;
54897;SDS011;40800;52.704;6.398;2023-04-24T09:45:18;57.30;;;53.20;;
54897;SDS011;40800;52.704;6.398;2023-04-24T09:47:44;57.60;;;53.47;;
54897;SDS011;40800;52.704;6.398;2023-04-24T09:50:11;56.92;;;52.97;;
54897;SDS011;40800;52.704;6.398;2023-04-24T09:52:44;55.95;;;52.08;;
54897;SDS011;40800;52.704;6.398;2023-04-24T09:55:20;54.88;;;51.15;;
54897;SDS011;40800;52.704;6.398;2023-04-24T09:57:54;56.85;;;52.95;;
54897;SDS011;40800;52.704;6.398;2023-04-24T10:00:28;55.28;;;51.55;;
54897;SDS011;40800;52.704;6.398;2023-04-24T10:05:28;55.13;;;51.25;;
54897;SDS011;40800;52.704;6.398;2023-04-24T10:08:06;54.92;;;50.95;;
54897;SDS011;40800;52.704;6.398;2023-04-24T10:10:38;52.10;;;48.83;;
54897;SDS011;40800;52.704;6.398;2023-04-24T10:13:09;50.10;;;46.88;;
54897;SDS011;40800;52.704;6.398;2023-04-24T10:15:39;49.00;;;45.70;;
54897;SDS011;40800;52.704;6.398;2023-04-24T10:18:06;46.25;;;43.55;;
54897;SDS011;40800;52.704;6.398;2023-04-24T10:20:33;45.20;;;42.28;;
54897;SDS011;40800;52.704;6.398;2023-04-24T10:23:00;44.22;;;41.50;;
54897;SDS011;40800;52.704;6.398;2023-04-24T10:25:27;44.13;;;41.45;;
54897;SDS011;40800;52.704;6.398;2023-04-24T10:27:58;43.55;;;40.90;;
54897;SDS011;40800;52.704;6.398;2023-04-24T10:30:28;43.25;;;40.42;;
54897;SDS011;40800;52.704;6.398;2023-04-24T10:32:55;43.83;;;41.00;;
54897;SDS011;40800;52.704;6.398;2023-04-24T10:35:21;41.47;;;39.08;;
54897;SDS011;40800;52.704;6.398;2023-04-24T10:37:53;41.28;;;38.85;;
54897;SDS011;40800;52.704;6.398;2023-04-24T10:40:26;41.60;;;39.25;;
54897;SDS011;40800;52.704;6.398;2023-04-24T10:42:55;42.63;;;40.22;;
54897;SDS011;40800;52.704;6.398;2023-04-24T10:45:22;41.33;;;38.67;;
54897;SDS011;40800;52.704;6.398;2023-04-24T10:50:18;40.60;;;37.90;;
54897;SDS011;40800;52.704;6.398;2023-04-24T10:52:47;42.30;;;39.60;;
54897;SDS011;40800;52.704;6.398;2023-04-24T10:55:15;42.42;;;39.63;;
54897;SDS011;40800;52.704;6.398;2023-04-24T10:58:00;40.60;;;37.80;;
54897;SDS011;40800;52.704;6.398;2023-04-24T11:00:30;39.85;;;37.17;;
54897;SDS011;40800;52.704;6.398;2023-04-24T11:02:55;38.83;;;35.67;;
54897;SDS011;40800;52.704;6.398;2023-04-24T11:05:22;37.72;;;35.50;;
54897;SDS011;40800;52.704;6.398;2023-04-24T11:08:16;37.17;;;35.03;;
54897;SDS011;40800;52.704;6.398;2023-04-24T11:11:01;36.10;;;33.53;;
54897;SDS011;40800;52.704;6.398;2023-04-24T11:16:28;32.78;;;30.70;;
54897;SDS011;40800;52.704;6.398;2023-04-24T11:19:01;33.85;;;31.95;;
54897;SDS011;40800;52.704;6.398;2023-04-24T11:24:38;32.17;;;30.17;;
54897;SDS011;40800;52.704;6.398;2023-04-24T11:29:40;23.95;;;22.45;;
54897;SDS011;40800;52.704;6.398;2023-04-24T11:37:29;20.40;;;19.02;;
54897;SDS011;40800;52.704;6.398;2023-04-24T11:40:02;21.38;;;20.08;;
54897;SDS011;40800;52.704;6.398;2023-04-24T11:44:58;19.80;;;18.52;;
54897;SDS011;40800;52.704;6.398;2023-04-24T11:47:31;20.88;;;19.10;;
54897;SDS011;40800;52.704;6.398;2023-04-24T11:49:58;20.98;;;19.58;;
54897;SDS011;40800;52.704;6.398;2023-04-24T11:52:25;21.60;;;20.30;;
54897;SDS011;40800;52.704;6.398;2023-04-24T11:54:52;22.50;;;21.02;;
54897;SDS011;40800;52.704;6.398;2023-04-24T11:57:21;24.02;;;22.33;;
54897;SDS011;40800;52.704;6.398;2023-04-24T11:59:47;23.48;;;21.70;;
54897;SDS011;40800;52.704;6.398;2023-04-24T12:02:23;23.83;;;22.27;;
54897;SDS011;40800;52.704;6.398;2023-04-24T12:04:49;25.65;;;23.77;;
54897;SDS011;40800;52.704;6.398;2023-04-24T12:07:16;26.98;;;25.15;;
54897;SDS011;40800;52.704;6.398;2023-04-24T12:09:45;22.35;;;20.95;;
54897;SDS011;40800;52.704;6.398;2023-04-24T12:12:12;22.77;;;21.38;;
54897;SDS011;40800;52.704;6.398;2023-04-24T12:17:12;21.52;;;20.30;;
54897;SDS011;40800;52.704;6.398;2023-04-24T12:19:44;23.13;;;21.92;;
54897;SDS011;40800;52.704;6.398;2023-04-24T12:22:13;23.60;;;22.30;;
54897;SDS011;40800;52.704;6.398;2023-04-24T12:27:32;22.83;;;21.58;;
54897;SDS011;40800;52.704;6.398;2023-04-24T12:29:58;24.30;;;22.92;;
54897;SDS011;40800;52.704;6.398;2023-04-24T12:32:25;24.75;;;23.52;;
54897;SDS011;40800;52.704;6.398;2023-04-24T12:34:52;23.52;;;22.23;;
54897;SDS011;40800;52.704;6.398;2023-04-24T12:37:18;24.20;;;22.90;;
54897;SDS011;40800;52.704;6.398;2023-04-24T12:39:45;23.17;;;21.88;;
54897;SDS011;40800;52.704;6.398;2023-04-24T12:42:31;22.35;;;21.15;;
54897;SDS011;40800;52.704;6.398;2023-04-24T12:45:04;21.40;;;20.30;;
54897;SDS011;40800;52.704;6.398;2023-04-24T12:47:32;21.27;;;20.08;;
54897;SDS011;40800;52.704;6.398;2023-04-24T12:49:59;21.85;;;20.27;;
54897;SDS011;40800;52.704;6.398;2023-04-24T12:52:25;23.20;;;21.80;;
54897;SDS011;40800;52.704;6.398;2023-04-24T12:54:52;22.40;;;21.10;;
54897;SDS011;40800;52.704;6.398;2023-04-24T12:57:19;23.83;;;22.42;;
54897;SDS011;40800;52.704;6.398;2023-04-24T12:59:45;25.02;;;23.42;;
54897;SDS011;40800;52.704;6.398;2023-04-24T13:02:10;24.92;;;23.42;;
54897;SDS011;40800;52.704;6.398;2023-04-24T13:04:36;26.63;;;25.23;;
54897;SDS011;40800;52.704;6.398;2023-04-24T13:07:02;25.83;;;24.13;;
54897;SDS011;40800;52.704;6.398;2023-04-24T13:09:28;26.23;;;24.45;;
54897;SDS011;40800;52.704;6.398;2023-04-24T13:11:53;25.95;;;24.45;;
54897;SDS011;40800;52.704;6.398;2023-04-24T13:14:20;26.50;;;24.83;;
54897;SDS011;40800;52.704;6.398;2023-04-24T13:16:45;27.80;;;25.98;;
54897;SDS011;40800;52.704;6.398;2023-04-24T13:19:11;28.38;;;26.30;;
54897;SDS011;40800;52.704;6.398;2023-04-24T13:21:36;24.08;;;22.70;;
54897;SDS011;40800;52.704;6.398;2023-04-24T13:24:02;22.25;;;20.77;;
54897;SDS011;40800;52.704;6.398;2023-04-24T13:26:29;21.27;;;20.17;;
54897;SDS011;40800;52.704;6.398;2023-04-24T13:28:55;21.45;;;20.15;;
54897;SDS011;40800;52.704;6.398;2023-04-24T13:31:21;21.20;;;20.02;;
54897;SDS011;40800;52.704;6.398;2023-04-24T13:33:46;19.98;;;18.88;;
54897;SDS011;40800;52.704;6.398;2023-04-24T13:36:12;19.15;;;17.85;;
54897;SDS011;40800;52.704;6.398;2023-04-24T13:38:38;18.73;;;17.55;;
54897;SDS011;40800;52.704;6.398;2023-04-24T13:41:04;19.05;;;17.80;;
54897;SDS011;40800;52.704;6.398;2023-04-24T13:43:29;18.48;;;17.13;;
54897;SDS011;40800;52.704;6.398;2023-04-24T13:45:55;17.92;;;17.02;;
54897;SDS011;40800;52.704;6.398;2023-04-24T13:48:20;17.38;;;16.27;;
54897;SDS011;40800;52.704;6.398;2023-04-24T13:50:46;18.05;;;16.77;;
54897;SDS011;40800;52.704;6.398;2023-04-24T13:53:13;19.50;;;18.40;;
54897;SDS011;40800;52.704;6.398;2023-04-24T13:55:39;23.67;;;22.17;;
54897;SDS011;40800;52.704;6.398;2023-04-24T13:58:05;26.50;;;24.80;;
54897;SDS011;40800;52.704;6.398;2023-04-24T14:00:31;28.33;;;26.55;;
54897;SDS011;40800;52.704;6.398;2023-04-24T14:02:56;28.50;;;26.98;;
54897;SDS011;40800;52.704;6.398;2023-04-24T14:05:22;29.40;;;27.60;;
54897;SDS011;40800;52.704;6.398;2023-04-24T14:07:48;31.13;;;29.08;;
54897;SDS011;40800;52.704;6.398;2023-04-24T14:10:14;31.83;;;29.63;;
54897;SDS011;40800;52.704;6.398;2023-04-24T14:12:39;32.10;;;30.17;;
54897;SDS011;40800;52.704;6.398;2023-04-24T14:15:05;31.70;;;29.50;;
54897;SDS011;40800;52.704;6.398;2023-04-24T14:17:31;32.80;;;30.47;;
54897;SDS011;40800;52.704;6.398;2023-04-24T14:19:56;31.77;;;29.75;;
54897;SDS011;40800;52.704;6.398;2023-04-24T14:22:24;31.05;;;29.05;;
54897;SDS011;40800;52.704;6.398;2023-04-24T14:24:50;31.05;;;28.75;;
54897;SDS011;40800;52.704;6.398;2023-04-24T14:27:15;30.73;;;28.23;;
54897;SDS011;40800;52.704;6.398;2023-04-24T14:29:41;29.17;;;27.27;;
54897;SDS011;40800;52.704;6.398;2023-04-24T14:32:07;28.08;;;26.30;;
54897;SDS011;40800;52.704;6.398;2023-04-24T14:34:33;29.00;;;26.42;;
54897;SDS011;40800;52.704;6.398;2023-04-24T14:36:59;27.55;;;25.75;;
54897;SDS011;40800;52.704;6.398;2023-04-24T14:39:25;27.95;;;25.75;;
54897;SDS011;40800;52.704;6.398;2023-04-24T14:41:51;26.48;;;24.58;;
54897;SDS011;40800;52.704;6.398;2023-04-24T14:44:16;26.42;;;24.52;;
54897;SDS011;40800;52.704;6.398;2023-04-24T14:46:42;27.85;;;25.77;;
54897;SDS011;40800;52.704;6.398;2023-04-24T14:49:08;27.45;;;25.40;;
54897;SDS011;40800;52.704;6.398;2023-04-24T14:51:35;25.52;;;23.63;;
54897;SDS011;40800;52.704;6.398;2023-04-24T14:54:01;25.83;;;23.73;;
54897;SDS011;40800;52.704;6.398;2023-04-24T14:56:26;23.38;;;21.75;;
54897;SDS011;40800;52.704;6.398;2023-04-24T14:58:52;23.05;;;21.40;;